sensor_id;sensor_type;location;lat;lon;timestamp;pressure;altitude;pressure_sealevel;temperature;humidity
16451;BME280;12243;42.708;23.310;2023-06-10T00:02:20;94647.75;;;20.52;92.18
16451;BME280;12243;42.708;23.310;2023-06-10T00:04:47;94652.78;;;20.40;90.83
16451;BME280;12243;42.708;23.310;2023-06-10T00:07:14;94647.66;;;20.38;92.99
16451;BME280;12243;42.708;23.310;2023-06-10T00:09:41;94641.19;;;20.48;92.54
16451;BME280;12243;42.708;23.310;2023-06-10T00:12:08;94638.78;;;20.53;92.20
16451;BME280;12243;42.708;23.310;2023-06-10T00:14:39;94637.22;;;20.65;91.38
16451;BME280;12243;42.708;23.310;2023-06-10T00:17:06;94631.94;;;20.65;90.94
16451;BME280;12243;42.708;23.310;2023-06-10T00:19:35;94636.81;;;20.61;91.13
16451;BME280;12243;42.708;23.310;2023-06-10T00:22:02;94635.16;;;20.54;91.16
16451;BME280;12243;42.708;23.310;2023-06-10T00:24:30;94639.13;;;20.36;92.97
16451;BME280;12243;42.708;23.310;2023-06-10T00:26:57;94644.41;;;20.30;93.74
16451;BME280;12243;42.708;23.310;2023-06-10T00:29:24;94637.28;;;20.30;92.95
16451;BME280;12243;42.708;23.310;2023-06-10T00:31:53;94636.03;;;20.26;94.10
16451;BME280;12243;42.708;23.310;2023-06-10T00:34:23;94644.22;;;20.38;93.97
16451;BME280;12243;42.708;23.310;2023-06-10T00:36:51;94641.19;;;20.48;92.50
16451;BME280;12243;42.708;23.310;2023-06-10T00:39:17;94640.38;;;20.40;92.70
16451;BME280;12243;42.708;23.310;2023-06-10T00:41:44;94631.78;;;20.38;93.51
16451;BME280;12243;42.708;23.310;2023-06-10T00:44:12;94640.13;;;20.35;93.12
16451;BME280;12243;42.708;23.310;2023-06-10T00:46:38;94635.50;;;20.44;93.53
16451;BME280;12243;42.708;23.310;2023-06-10T00:49:07;94642.06;;;20.55;93.75
16451;BME280;12243;42.708;23.310;2023-06-10T00:51:36;94641.09;;;20.76;92.65
16451;BME280;12243;42.708;23.310;2023-06-10T00:54:05;94642.56;;;20.91;90.61
16451;BME280;12243;42.708;23.310;2023-06-10T00:56:33;94642.97;;;20.95;90.07
16451;BME280;12243;42.708;23.310;2023-06-10T00:59:01;94652.16;;;21.06;89.40
16451;BME280;12243;42.708;23.310;2023-06-10T01:01:29;94654.41;;;20.96;88.91
16451;BME280;12243;42.708;23.310;2023-06-10T01:03:56;94655.59;;;20.86;88.90
16451;BME280;12243;42.708;23.310;2023-06-10T01:06:32;94651.47;;;20.70;90.35
16451;BME280;12243;42.708;23.310;2023-06-10T01:09:06;94655.91;;;20.57;91.32
16451;BME280;12243;42.708;23.310;2023-06-10T01:11:44;94648.09;;;20.42;92.82
16451;BME280;12243;42.708;23.310;2023-06-10T01:14:13;94649.72;;;20.36;92.68
16451;BME280;12243;42.708;23.310;2023-06-10T01:16:40;94658.63;;;20.35;92.77
16451;BME280;12243;42.708;23.310;2023-06-10T01:19:09;94660.22;;;20.23;94.28
16451;BME280;12243;42.708;23.310;2023-06-10T01:21:40;94661.41;;;20.14;95.33
16451;BME280;12243;42.708;23.310;2023-06-10T01:24:07;94647.56;;;20.12;97.11
16451;BME280;12243;42.708;23.310;2023-06-10T01:26:38;94645.78;;;20.19;96.20
16451;BME280;12243;42.708;23.310;2023-06-10T01:29:11;94643.13;;;20.19;96.96
16451;BME280;12243;42.708;23.310;2023-06-10T01:31:43;94643.91;;;20.13;96.99
16451;BME280;12243;42.708;23.310;2023-06-10T01:34:17;94645.03;;;19.97;99.28
16451;BME280;12243;42.708;23.310;2023-06-10T01:36:48;94640.19;;;20.07;100.00
16451;BME280;12243;42.708;23.310;2023-06-10T01:39:15;94644.81;;;20.33;99.20
16451;BME280;12243;42.708;23.310;2023-06-10T01:41:44;94646.50;;;20.48;97.45
16451;BME280;12243;42.708;23.310;2023-06-10T01:44:11;94640.44;;;20.60;96.86
16451;BME280;12243;42.708;23.310;2023-06-10T01:46:39;94639.69;;;20.80;95.92
16451;BME280;12243;42.708;23.310;2023-06-10T01:49:06;94639.50;;;20.94;94.95
16451;BME280;12243;42.708;23.310;2023-06-10T01:51:33;94634.84;;;21.10;93.96
16451;BME280;12243;42.708;23.310;2023-06-10T01:54:01;94636.91;;;21.21;93.42
16451;BME280;12243;42.708;23.310;2023-06-10T01:56:29;94633.00;;;21.30;92.74
16451;BME280;12243;42.708;23.310;2023-06-10T01:58:56;94628.56;;;21.31;92.51
16451;BME280;12243;42.708;23.310;2023-06-10T02:01:24;94632.44;;;21.42;91.74
16451;BME280;12243;42.708;23.310;2023-06-10T02:03:51;94637.34;;;21.45;91.24
16451;BME280;12243;42.708;23.310;2023-06-10T02:06:18;94630.41;;;21.50;89.91
16451;BME280;12243;42.708;23.310;2023-06-10T02:08:45;94626.72;;;21.31;90.08
16451;BME280;12243;42.708;23.310;2023-06-10T02:11:14;94623.88;;;21.39;90.67
16451;BME280;12243;42.708;23.310;2023-06-10T02:16:07;94631.81;;;21.53;89.89
16451;BME280;12243;42.708;23.310;2023-06-10T02:18:38;94622.22;;;21.65;89.36
16451;BME280;12243;42.708;23.310;2023-06-10T02:21:07;94624.28;;;21.63;88.62
16451;BME280;12243;42.708;23.310;2023-06-10T02:23:35;94621.41;;;21.71;88.50
16451;BME280;12243;42.708;23.310;2023-06-10T02:26:04;94621.38;;;21.84;87.25
16451;BME280;12243;42.708;23.310;2023-06-10T02:28:33;94616.09;;;21.78;87.25
16451;BME280;12243;42.708;23.310;2023-06-10T02:31:01;94617.13;;;21.83;87.03
16451;BME280;12243;42.708;23.310;2023-06-10T02:33:28;94608.34;;;21.76;87.25
16451;BME280;12243;42.708;23.310;2023-06-10T02:35:56;94611.19;;;21.81;86.90
16451;BME280;12243;42.708;23.310;2023-06-10T02:38:23;94607.50;;;21.89;86.49
16451;BME280;12243;42.708;23.310;2023-06-10T02:40:51;94604.03;;;21.88;86.31
16451;BME280;12243;42.708;23.310;2023-06-10T02:43:18;94600.56;;;21.95;85.71
16451;BME280;12243;42.708;23.310;2023-06-10T02:45:48;94594.63;;;21.93;85.69
16451;BME280;12243;42.708;23.310;2023-06-10T02:48:16;94591.19;;;21.85;86.00
16451;BME280;12243;42.708;23.310;2023-06-10T02:50:43;94588.94;;;21.82;86.35
16451;BME280;12243;42.708;23.310;2023-06-10T02:53:26;94590.81;;;21.75;86.54
16451;BME280;12243;42.708;23.310;2023-06-10T02:56:01;94597.53;;;21.71;86.87
16451;BME280;12243;42.708;23.310;2023-06-10T02:58:28;94592.06;;;21.66;87.00
16451;BME280;12243;42.708;23.310;2023-06-10T03:00:56;94595.13;;;21.63;87.39
16451;BME280;12243;42.708;23.310;2023-06-10T03:03:25;94598.81;;;21.62;87.34
16451;BME280;12243;42.708;23.310;2023-06-10T03:06:07;94603.88;;;21.57;87.63
16451;BME280;12243;42.708;23.310;2023-06-10T03:08:34;94606.38;;;21.38;90.19
16451;BME280;12243;42.708;23.310;2023-06-10T03:11:05;94606.69;;;20.76;94.11
16451;BME280;12243;42.708;23.310;2023-06-10T03:13:35;94613.28;;;20.38;97.95
16451;BME280;12243;42.708;23.310;2023-06-10T03:16:04;94615.38;;;20.08;99.84
16451;BME280;12243;42.708;23.310;2023-06-10T03:18:34;94610.34;;;20.13;100.00
16451;BME280;12243;42.708;23.310;2023-06-10T03:21:02;94615.03;;;20.18;100.00
16451;BME280;12243;42.708;23.310;2023-06-10T03:23:29;94613.22;;;19.77;100.00
16451;BME280;12243;42.708;23.310;2023-06-10T03:25:56;94620.31;;;19.48;100.00
16451;BME280;12243;42.708;23.310;2023-06-10T03:28:24;94620.72;;;19.52;100.00
16451;BME280;12243;42.708;23.310;2023-06-10T03:30:51;94630.09;;;19.55;100.00
16451;BME280;12243;42.708;23.310;2023-06-10T03:33:22;94633.75;;;19.54;100.00
16451;BME280;12243;42.708;23.310;2023-06-10T03:35:51;94625.41;;;19.50;100.00
16451;BME280;12243;42.708;23.310;2023-06-10T03:38:18;94628.88;;;19.50;100.00
16451;BME280;12243;42.708;23.310;2023-06-10T03:40:47;94632.78;;;19.61;100.00
16451;BME280;12243;42.708;23.310;2023-06-10T03:43:14;94626.28;;;19.57;100.00
16451;BME280;12243;42.708;23.310;2023-06-10T03:45:41;94626.56;;;19.69;100.00
16451;BME280;12243;42.708;23.310;2023-06-10T03:48:09;94629.50;;;19.81;100.00
16451;BME280;12243;42.708;23.310;2023-06-10T03:50:48;94631.16;;;19.88;100.00
16451;BME280;12243;42.708;23.310;2023-06-10T03:53:16;94624.38;;;20.14;100.00
16451;BME280;12243;42.708;23.310;2023-06-10T03:55:44;94627.09;;;20.27;100.00
16451;BME280;12243;42.708;23.310;2023-06-10T03:58:13;94630.31;;;20.29;100.00
16451;BME280;12243;42.708;23.310;2023-06-10T04:00:42;94628.56;;;20.36;100.00
16451;BME280;12243;42.708;23.310;2023-06-10T04:03:09;94621.22;;;20.38;100.00
16451;BME280;12243;42.708;23.310;2023-06-10T04:05:41;94623.34;;;20.56;98.68
16451;BME280;12243;42.708;23.310;2023-06-10T04:08:10;94622.34;;;20.64;97.82
16451;BME280;12243;42.708;23.310;2023-06-10T04:10:38;94628.28;;;20.79;97.12
16451;BME280;12243;42.708;23.310;2023-06-10T04:13:05;94629.13;;;20.93;95.57
16451;BME280;12243;42.708;23.310;2023-06-10T04:15:38;94636.47;;;20.98;95.01
16451;BME280;12243;42.708;23.310;2023-06-10T04:18:10;94640.56;;;21.07;94.18
16451;BME280;12243;42.708;23.310;2023-06-10T04:20:37;94642.59;;;21.18;92.88
16451;BME280;12243;42.708;23.310;2023-06-10T04:23:04;94646.88;;;21.19;92.59
16451;BME280;12243;42.708;23.310;2023-06-10T04:25:33;94645.25;;;21.18;92.39
16451;BME280;12243;42.708;23.310;2023-06-10T04:28:00;94637.31;;;21.31;91.70
16451;BME280;12243;42.708;23.310;2023-06-10T04:30:27;94640.81;;;21.38;91.03
16451;BME280;12243;42.708;23.310;2023-06-10T04:32:55;94633.66;;;21.46;91.33
16451;BME280;12243;42.708;23.310;2023-06-10T04:35:22;94629.56;;;21.63;90.29
16451;BME280;12243;42.708;23.310;2023-06-10T04:37:52;94635.47;;;21.72;91.51
16451;BME280;12243;42.708;23.310;2023-06-10T04:40:19;94636.28;;;21.72;90.28
16451;BME280;12243;42.708;23.310;2023-06-10T04:42:48;94635.28;;;21.73;90.37
16451;BME280;12243;42.708;23.310;2023-06-10T04:45:15;94640.75;;;21.78;89.54
16451;BME280;12243;42.708;23.310;2023-06-10T04:47:45;94640.34;;;21.88;88.99
16451;BME280;12243;42.708;23.310;2023-06-10T04:50:12;94630.34;;;21.97;88.73
16451;BME280;12243;42.708;23.310;2023-06-10T04:52:39;94642.56;;;21.98;88.78
16451;BME280;12243;42.708;23.310;2023-06-10T04:55:07;94640.72;;;22.05;88.80
16451;BME280;12243;42.708;23.310;2023-06-10T04:57:35;94635.41;;;22.05;87.14
16451;BME280;12243;42.708;23.310;2023-06-10T05:00:04;94628.69;;;22.16;88.82
16451;BME280;12243;42.708;23.310;2023-06-10T05:02:31;94632.28;;;22.34;87.55
16451;BME280;12243;42.708;23.310;2023-06-10T05:04:58;94627.81;;;22.28;87.52
16451;BME280;12243;42.708;23.310;2023-06-10T05:07:25;94630.03;;;22.31;87.29
16451;BME280;12243;42.708;23.310;2023-06-10T05:09:52;94639.84;;;22.24;86.10
16451;BME280;12243;42.708;23.310;2023-06-10T05:12:19;94635.00;;;22.15;87.62
16451;BME280;12243;42.708;23.310;2023-06-10T05:14:46;94632.13;;;22.16;87.29
16451;BME280;12243;42.708;23.310;2023-06-10T05:17:14;94630.28;;;22.10;86.54
16451;BME280;12243;42.708;23.310;2023-06-10T05:19:41;94630.69;;;22.07;86.88
16451;BME280;12243;42.708;23.310;2023-06-10T05:22:08;94628.69;;;22.02;86.94
16451;BME280;12243;42.708;23.310;2023-06-10T05:24:35;94631.97;;;21.98;87.16
16451;BME280;12243;42.708;23.310;2023-06-10T05:27:02;94633.16;;;22.02;87.89
16451;BME280;12243;42.708;23.310;2023-06-10T05:29:30;94635.81;;;22.15;88.21
16451;BME280;12243;42.708;23.310;2023-06-10T05:31:56;94641.72;;;22.17;86.26
16451;BME280;12243;42.708;23.310;2023-06-10T05:34:29;94647.63;;;22.06;86.73
16451;BME280;12243;42.708;23.310;2023-06-10T05:36:56;94645.78;;;22.06;88.10
16451;BME280;12243;42.708;23.310;2023-06-10T05:39:23;94643.78;;;22.02;87.38
16451;BME280;12243;42.708;23.310;2023-06-10T05:41:50;94647.06;;;21.91;89.48
16451;BME280;12243;42.708;23.310;2023-06-10T05:44:17;94645.78;;;22.13;87.16
16451;BME280;12243;42.708;23.310;2023-06-10T05:46:44;94636.00;;;22.20;86.87
16451;BME280;12243;42.708;23.310;2023-06-10T05:49:11;94642.53;;;22.11;85.79
16451;BME280;12243;42.708;23.310;2023-06-10T05:51:39;94642.72;;;22.09;85.75
16451;BME280;12243;42.708;23.310;2023-06-10T05:54:06;94644.59;;;21.96;87.89
16451;BME280;12243;42.708;23.310;2023-06-10T05:56:32;94644.03;;;21.80;88.89
16451;BME280;12243;42.708;23.310;2023-06-10T05:59:00;94645.88;;;21.73;91.48
16451;BME280;12243;42.708;23.310;2023-06-10T06:01:26;94649.31;;;22.00;90.45
16451;BME280;12243;42.708;23.310;2023-06-10T06:03:53;94643.34;;;22.25;88.55
16451;BME280;12243;42.708;23.310;2023-06-10T06:06:23;94653.06;;;22.38;88.88
16451;BME280;12243;42.708;23.310;2023-06-10T06:08:51;94644.66;;;22.54;86.23
16451;BME280;12243;42.708;23.310;2023-06-10T06:11:18;94649.44;;;22.77;85.66
16451;BME280;12243;42.708;23.310;2023-06-10T06:13:46;94651.16;;;23.03;84.98
16451;BME280;12243;42.708;23.310;2023-06-10T06:16:13;94648.91;;;23.32;81.75
16451;BME280;12243;42.708;23.310;2023-06-10T06:18:40;94650.31;;;23.09;82.08
16451;BME280;12243;42.708;23.310;2023-06-10T06:21:08;94650.63;;;22.94;82.83
16451;BME280;12243;42.708;23.310;2023-06-10T06:23:35;94655.34;;;22.79;83.10
16451;BME280;12243;42.708;23.310;2023-06-10T06:26:03;94663.28;;;22.86;82.87
16451;BME280;12243;42.708;23.310;2023-06-10T06:28:30;94662.41;;;22.60;83.50
16451;BME280;12243;42.708;23.310;2023-06-10T06:30:57;94662.94;;;22.75;84.65
16451;BME280;12243;42.708;23.310;2023-06-10T06:33:24;94656.13;;;22.93;80.67
16451;BME280;12243;42.708;23.310;2023-06-10T06:35:51;94663.94;;;22.81;79.97
16451;BME280;12243;42.708;23.310;2023-06-10T06:38:18;94655.88;;;22.56;80.46
16451;BME280;12243;42.708;23.310;2023-06-10T06:40:46;94656.72;;;22.50;81.60
16451;BME280;12243;42.708;23.310;2023-06-10T06:43:14;94651.59;;;22.55;83.19
16451;BME280;12243;42.708;23.310;2023-06-10T06:46:02;94648.13;;;22.99;81.48
16451;BME280;12243;42.708;23.310;2023-06-10T06:48:29;94639.47;;;23.11;78.78
16451;BME280;12243;42.708;23.310;2023-06-10T06:50:56;94639.75;;;22.96;80.01
16451;BME280;12243;42.708;23.310;2023-06-10T06:53:24;94640.44;;;23.16;77.97
16451;BME280;12243;42.708;23.310;2023-06-10T06:55:50;94636.50;;;22.94;77.46
16451;BME280;12243;42.708;23.310;2023-06-10T06:58:19;94643.34;;;23.08;76.46
16451;BME280;12243;42.708;23.310;2023-06-10T07:00:46;94632.72;;;23.08;74.87
16451;BME280;12243;42.708;23.310;2023-06-10T07:03:12;94638.72;;;23.28;76.16
16451;BME280;12243;42.708;23.310;2023-06-10T07:05:39;94638.19;;;23.45;72.72
16451;BME280;12243;42.708;23.310;2023-06-10T07:08:06;94636.56;;;23.44;74.07
16451;BME280;12243;42.708;23.310;2023-06-10T07:10:33;94636.56;;;23.44;72.01
16451;BME280;12243;42.708;23.310;2023-06-10T07:13:00;94626.50;;;23.46;72.35
16451;BME280;12243;42.708;23.310;2023-06-10T07:15:29;94631.69;;;23.41;72.52
16451;BME280;12243;42.708;23.310;2023-06-10T07:17:56;94628.69;;;23.56;72.81
16451;BME280;12243;42.708;23.310;2023-06-10T07:20:23;94622.50;;;23.87;72.75
16451;BME280;12243;42.708;23.310;2023-06-10T07:22:49;94617.41;;;24.22;71.83
16451;BME280;12243;42.708;23.310;2023-06-10T07:25:18;94614.06;;;24.63;68.49
16451;BME280;12243;42.708;23.310;2023-06-10T07:27:45;94624.88;;;25.10;66.01
16451;BME280;12243;42.708;23.310;2023-06-10T07:30:12;94619.66;;;25.57;62.96
16451;BME280;12243;42.708;23.310;2023-06-10T07:32:41;94626.53;;;26.00;61.46
16451;BME280;12243;42.708;23.310;2023-06-10T07:35:10;94613.56;;;26.44;54.94
16451;BME280;12243;42.708;23.310;2023-06-10T07:37:38;94624.03;;;27.15;57.46
16451;BME280;12243;42.708;23.310;2023-06-10T07:40:06;94615.94;;;27.43;54.07
16451;BME280;12243;42.708;23.310;2023-06-10T07:42:34;94617.59;;;27.78;53.73
16451;BME280;12243;42.708;23.310;2023-06-10T07:45:02;94615.16;;;27.60;50.12
16451;BME280;12243;42.708;23.310;2023-06-10T07:47:29;94612.13;;;27.39;50.03
16451;BME280;12243;42.708;23.310;2023-06-10T07:49:58;94620.75;;;27.41;53.05
16451;BME280;12243;42.708;23.310;2023-06-10T07:52:24;94611.56;;;27.71;51.81
16451;BME280;12243;42.708;23.310;2023-06-10T07:54:54;94616.06;;;28.21;51.20
16451;BME280;12243;42.708;23.310;2023-06-10T07:57:20;94616.56;;;28.62;48.94
16451;BME280;12243;42.708;23.310;2023-06-10T07:59:47;94614.63;;;28.79;48.73
16451;BME280;12243;42.708;23.310;2023-06-10T08:02:14;94608.75;;;29.04;48.44
16451;BME280;12243;42.708;23.310;2023-06-10T08:04:41;94609.75;;;28.76;48.86
16451;BME280;12243;42.708;23.310;2023-06-10T08:07:10;94609.72;;;28.71;47.68
16451;BME280;12243;42.708;23.310;2023-06-10T08:09:37;94606.47;;;28.69;47.03
16451;BME280;12243;42.708;23.310;2023-06-10T08:12:06;94606.03;;;28.99;47.22
16451;BME280;12243;42.708;23.310;2023-06-10T08:14:35;94614.41;;;29.35;46.34
16451;BME280;12243;42.708;23.310;2023-06-10T08:17:02;94602.13;;;29.71;45.98
16451;BME280;12243;42.708;23.310;2023-06-10T08:19:31;94601.53;;;30.11;45.30
16451;BME280;12243;42.708;23.310;2023-06-10T08:21:58;94601.97;;;30.35;42.14
16451;BME280;12243;42.708;23.310;2023-06-10T08:24:26;94597.75;;;30.60;41.58
16451;BME280;12243;42.708;23.310;2023-06-10T08:26:54;94595.84;;;30.50;41.65
16451;BME280;12243;42.708;23.310;2023-06-10T08:29:24;94591.25;;;30.46;42.77
16451;BME280;12243;42.708;23.310;2023-06-10T08:31:52;94600.81;;;30.21;41.91
16451;BME280;12243;42.708;23.310;2023-06-10T08:34:23;94587.56;;;29.67;42.26
16451;BME280;12243;42.708;23.310;2023-06-10T08:36:50;94586.06;;;29.49;43.61
16451;BME280;12243;42.708;23.310;2023-06-10T08:39:21;94583.56;;;29.70;43.39
16451;BME280;12243;42.708;23.310;2023-06-10T08:41:59;94583.41;;;29.86;43.55
16451;BME280;12243;42.708;23.310;2023-06-10T08:44:29;94580.56;;;30.08;42.83
16451;BME280;12243;42.708;23.310;2023-06-10T08:46:59;94579.44;;;30.42;42.67
16451;BME280;12243;42.708;23.310;2023-06-10T08:49:30;94578.50;;;30.89;41.77
16451;BME280;12243;42.708;23.310;2023-06-10T08:52:02;94579.88;;;31.06;41.44
16451;BME280;12243;42.708;23.310;2023-06-10T08:54:32;94569.94;;;31.27;41.19
16451;BME280;12243;42.708;23.310;2023-06-10T08:57:04;94572.13;;;31.41;41.07
16451;BME280;12243;42.708;23.310;2023-06-10T08:59:32;94564.03;;;31.20;40.71
16451;BME280;12243;42.708;23.310;2023-06-10T09:01:59;94563.22;;;31.09;41.83
16451;BME280;12243;42.708;23.310;2023-06-10T09:04:27;94563.22;;;31.30;40.76
16451;BME280;12243;42.708;23.310;2023-06-10T09:06:55;94554.38;;;31.45;40.48
16451;BME280;12243;42.708;23.310;2023-06-10T09:09:23;94558.91;;;31.14;39.75
16451;BME280;12243;42.708;23.310;2023-06-10T09:11:52;94559.78;;;30.36;42.50
16451;BME280;12243;42.708;23.310;2023-06-10T09:14:20;94561.81;;;29.66;45.34
16451;BME280;12243;42.708;23.310;2023-06-10T09:16:47;94551.19;;;28.90;46.10
16451;BME280;12243;42.708;23.310;2023-06-10T09:19:16;94547.84;;;28.07;47.50
16451;BME280;12243;42.708;23.310;2023-06-10T09:21:43;94549.16;;;27.48;48.82
16451;BME280;12243;42.708;23.310;2023-06-10T09:24:10;94553.56;;;27.21;49.36
16451;BME280;12243;42.708;23.310;2023-06-10T09:26:37;94551.63;;;27.04;50.02
16451;BME280;12243;42.708;23.310;2023-06-10T09:29:06;94548.75;;;26.60;50.52
16451;BME280;12243;42.708;23.310;2023-06-10T09:31:36;94552.63;;;26.70;51.97
16451;BME280;12243;42.708;23.310;2023-06-10T09:34:07;94541.53;;;27.40;50.58
16451;BME280;12243;42.708;23.310;2023-06-10T09:36:36;94538.13;;;28.22;47.49
16451;BME280;12243;42.708;23.310;2023-06-10T09:39:03;94546.28;;;28.77;45.15
16451;BME280;12243;42.708;23.310;2023-06-10T09:41:34;94539.28;;;29.35;44.31
16451;BME280;12243;42.708;23.310;2023-06-10T09:44:01;94544.84;;;29.28;43.60
16451;BME280;12243;42.708;23.310;2023-06-10T09:46:31;94536.69;;;29.13;43.70
16451;BME280;12243;42.708;23.310;2023-06-10T09:48:59;94538.09;;;29.20;43.44
16451;BME280;12243;42.708;23.310;2023-06-10T09:51:26;94532.44;;;29.54;42.80
16451;BME280;12243;42.708;23.310;2023-06-10T09:53:54;94533.53;;;30.01;42.90
16451;BME280;12243;42.708;23.310;2023-06-10T09:56:20;94521.75;;;30.80;40.40
16451;BME280;12243;42.708;23.310;2023-06-10T09:58:53;94511.28;;;31.09;39.32
16451;BME280;12243;42.708;23.310;2023-06-10T10:01:20;94510.75;;;31.58;38.42
16451;BME280;12243;42.708;23.310;2023-06-10T10:03:49;94511.72;;;32.08;36.36
16451;BME280;12243;42.708;23.310;2023-06-10T10:06:18;94517.66;;;32.00;35.63
16451;BME280;12243;42.708;23.310;2023-06-10T10:08:47;94516.13;;;31.58;33.21
16451;BME280;12243;42.708;23.310;2023-06-10T10:11:17;94513.97;;;31.19;35.01
16451;BME280;12243;42.708;23.310;2023-06-10T10:13:45;94510.75;;;30.92;36.28
16451;BME280;12243;42.708;23.310;2023-06-10T10:16:15;94502.16;;;31.05;36.70
16451;BME280;12243;42.708;23.310;2023-06-10T10:18:49;94494.84;;;31.31;34.93
16451;BME280;12243;42.708;23.310;2023-06-10T10:21:22;94499.19;;;31.22;36.90
16451;BME280;12243;42.708;23.310;2023-06-10T10:23:53;94501.06;;;30.91;36.54
16451;BME280;12243;42.708;23.310;2023-06-10T10:26:25;94501.59;;;30.88;36.79
16451;BME280;12243;42.708;23.310;2023-06-10T10:28:58;94502.16;;;31.05;36.44
16451;BME280;12243;42.708;23.310;2023-06-10T10:31:29;94497.00;;;30.78;37.48
16451;BME280;12243;42.708;23.310;2023-06-10T10:34:00;94486.00;;;30.84;37.16
16451;BME280;12243;42.708;23.310;2023-06-10T10:36:28;94489.78;;;31.14;36.78
16451;BME280;12243;42.708;23.310;2023-06-10T10:38:59;94494.09;;;31.36;36.60
16451;BME280;12243;42.708;23.310;2023-06-10T10:41:29;94491.13;;;31.32;35.84
16451;BME280;12243;42.708;23.310;2023-06-10T10:43:58;94487.53;;;31.72;35.78
16451;BME280;12243;42.708;23.310;2023-06-10T10:46:25;94485.31;;;32.10;35.32
16451;BME280;12243;42.708;23.310;2023-06-10T10:48:53;94482.69;;;32.94;33.73
16451;BME280;12243;42.708;23.310;2023-06-10T10:51:22;94477.06;;;33.83;31.49
16451;BME280;12243;42.708;23.310;2023-06-10T10:54:11;94478.84;;;33.05;31.15
16451;BME280;12243;42.708;23.310;2023-06-10T10:56:39;94465.25;;;31.31;34.33
16451;BME280;12243;42.708;23.310;2023-06-10T10:59:06;94467.16;;;31.30;34.39
16451;BME280;12243;42.708;23.310;2023-06-10T11:01:41;94463.28;;;31.83;34.99
16451;BME280;12243;42.708;23.310;2023-06-10T11:04:12;94468.38;;;31.99;35.40
16451;BME280;12243;42.708;23.310;2023-06-10T11:06:39;94462.22;;;31.89;35.35
16451;BME280;12243;42.708;23.310;2023-06-10T11:09:28;94456.91;;;31.48;36.25
16451;BME280;12243;42.708;23.310;2023-06-10T11:11:57;94446.41;;;30.54;37.95
16451;BME280;12243;42.708;23.310;2023-06-10T11:14:29;94457.25;;;30.02;38.74
16451;BME280;12243;42.708;23.310;2023-06-10T11:16:57;94446.41;;;29.71;39.13
16451;BME280;12243;42.708;23.310;2023-06-10T11:19:35;94440.56;;;29.37;40.74
16451;BME280;12243;42.708;23.310;2023-06-10T11:22:05;94449.44;;;28.73;43.03
16451;BME280;12243;42.708;23.310;2023-06-10T11:24:34;94440.72;;;28.56;44.51
16451;BME280;12243;42.708;23.310;2023-06-10T11:27:18;94445.75;;;28.79;42.47
16451;BME280;12243;42.708;23.310;2023-06-10T11:29:58;94433.44;;;28.83;43.26
16451;BME280;12243;42.708;23.310;2023-06-10T11:32:30;94430.94;;;29.04;43.70
16451;BME280;12243;42.708;23.310;2023-06-10T11:34:58;94425.22;;;29.32;40.65
16451;BME280;12243;42.708;23.310;2023-06-10T11:37:26;94425.28;;;29.42;40.91
16451;BME280;12243;42.708;23.310;2023-06-10T11:39:56;94422.59;;;29.37;40.15
16451;BME280;12243;42.708;23.310;2023-06-10T11:42:23;94426.75;;;29.18;39.69
16451;BME280;12243;42.708;23.310;2023-06-10T11:44:51;94427.03;;;29.22;40.19
16451;BME280;12243;42.708;23.310;2023-06-10T11:47:19;94427.50;;;29.51;39.67
16451;BME280;12243;42.708;23.310;2023-06-10T11:49:55;94428.28;;;30.04;38.66
16451;BME280;12243;42.708;23.310;2023-06-10T11:52:26;94423.06;;;30.65;36.63
16451;BME280;12243;42.708;23.310;2023-06-10T11:54:56;94419.84;;;31.04;36.14
16451;BME280;12243;42.708;23.310;2023-06-10T11:57:23;94416.59;;;31.33;35.33
16451;BME280;12243;42.708;23.310;2023-06-10T11:59:50;94412.53;;;31.40;34.74
16451;BME280;12243;42.708;23.310;2023-06-10T12:02:18;94414.97;;;31.16;33.50
16451;BME280;12243;42.708;23.310;2023-06-10T12:04:45;94410.16;;;30.88;33.59
16451;BME280;12243;42.708;23.310;2023-06-10T12:07:17;94411.22;;;30.92;34.92
16451;BME280;12243;42.708;23.310;2023-06-10T12:09:44;94413.09;;;30.66;33.12
16451;BME280;12243;42.708;23.310;2023-06-10T12:12:13;94419.25;;;30.46;33.18
16451;BME280;12243;42.708;23.310;2023-06-10T12:14:54;94407.41;;;30.21;33.06
16451;BME280;12243;42.708;23.310;2023-06-10T12:17:22;94405.16;;;29.98;33.01
16451;BME280;12243;42.708;23.310;2023-06-10T12:19:50;94406.19;;;29.86;34.91
16451;BME280;12243;42.708;23.310;2023-06-10T12:22:18;94401.38;;;29.88;34.38
16451;BME280;12243;42.708;23.310;2023-06-10T12:24:56;94402.50;;;30.08;34.02
16451;BME280;12243;42.708;23.310;2023-06-10T12:27:26;94399.34;;;30.26;33.65
16451;BME280;12243;42.708;23.310;2023-06-10T12:29:55;94396.94;;;30.35;32.65
16451;BME280;12243;42.708;23.310;2023-06-10T12:32:35;94400.41;;;30.20;32.71
16451;BME280;12243;42.708;23.310;2023-06-10T12:35:02;94392.31;;;30.10;32.62
16451;BME280;12243;42.708;23.310;2023-06-10T12:37:30;94390.13;;;29.97;32.74
16451;BME280;12243;42.708;23.310;2023-06-10T12:40:00;94385.25;;;29.83;32.45
16451;BME280;12243;42.708;23.310;2023-06-10T12:42:29;94380.94;;;29.82;32.11
16451;BME280;12243;42.708;23.310;2023-06-10T12:44:57;94378.88;;;30.10;32.31
16451;BME280;12243;42.708;23.310;2023-06-10T12:47:30;94386.44;;;30.28;31.35
16451;BME280;12243;42.708;23.310;2023-06-10T12:49:58;94385.91;;;30.21;31.52
16451;BME280;12243;42.708;23.310;2023-06-10T12:52:25;94394.75;;;30.17;32.24
16451;BME280;12243;42.708;23.310;2023-06-10T12:54:52;94397.13;;;30.08;32.17
16451;BME280;12243;42.708;23.310;2023-06-10T12:57:20;94394.44;;;30.03;32.50
16451;BME280;12243;42.708;23.310;2023-06-10T12:59:48;94398.91;;;29.72;32.42
16451;BME280;12243;42.708;23.310;2023-06-10T13:02:18;94395.00;;;29.52;33.89